首页
METAR-TAF:

METAR-TAF

机场 :

蒂鲁帕蒂, 印度

纬度: 13-38-16N, 经度: 79-32-50E, 海拔: 107米

当前天气观测

该预报发布于2小时和14分钟前的15:30 UTC
风速9节,风向西南
温度 31°C
湿度 63%
气压 1006 hPa
能見度: 6000
散云层高于2000英尺
少量云层高于2500英尺, 积雨云.

METAR: VOTP 181530Z 22009KT 6000 SCT020 FEW025CB 31/23 Q1006 NOSIG

时间: 23:14 (17:44 UTC)

预报

该预报发布于44分钟前的17:00 UTC
预报有效从18日的 18点(UTC)到 19日的 24点(UTC)
风速10节,风向西
能見度: 6000
散云层高于1500英尺
多云层高于8000英尺
短暂存在
从 18日的 23点(UTC)到 19日的 03点(UTC)
能見度: 3000
散云层高于1500英尺
多云层高于8000英尺
轻雾
成为
从 19日的 04点(UTC)到 19日的 06点(UTC)
风速12节,风向西转西南
能見度: 6000
散云层高于1500英尺
散云层高于2500英尺
短暂存在
从 19日的 10点(UTC)到 19日的 15点(UTC)
风速10节,风向西转西南
能見度: 3000
散云层高于1500英尺
少量云层高于3000英尺, 积雨云.
多云层高于8000英尺
成为
从 19日的 20点(UTC)到 19日的 22点(UTC)
风速8节,风向西
能見度: 5000
散云层高于1500英尺
多云层高于10000英尺
霾,

TAF: VOTP 181700Z 1818/1924 28010KT 6000 SCT015 BKN080 TEMPO 1823/1903 3000 BR SCT015 BKN080 BECMG 1904/1906 25012KT 6000 SCT015 SCT025 TEMPO 1910/1915 25010KT 3000 .TSRA RA SCT015 FEW030CB BKN080 BECMG 1920/1922 26008KT 5000 HZ SCT015 BKN100

超过4000个机场的气象观测和天气预报(METAR&TAF报告)。

可查询的气象台以黄色和红色小点在地图上表示。

将鼠标移到小点上方,可查看气象台名称。

然后点击查看天气观测和预报。

如需切换地图:点击带黑十字的绿色按钮放大地图;点击带横线的绿色按钮缩小地图;或者点击绿色箭头查看邻近地区的地图。


METAR-TAF: